sensor_id;sensor_type;location;lat;lon;timestamp;pressure;altitude;pressure_sealevel;temperature;humidity
25156;BME280;21913;52.456;13.634;2023-03-14T00:04:48;97807.25;;;11.33;68.60
25156;BME280;21913;52.456;13.634;2023-03-14T00:09:50;97791.63;;;11.35;68.31
25156;BME280;21913;52.456;13.634;2023-03-14T00:14:52;97811.50;;;11.34;68.59
25156;BME280;21913;52.456;13.634;2023-03-14T00:19:53;97795.97;;;11.34;68.58
25156;BME280;21913;52.456;13.634;2023-03-14T00:24:55;97806.25;;;11.36;68.63
25156;BME280;21913;52.456;13.634;2023-03-14T00:29:56;97799.41;;;11.35;68.38
25156;BME280;21913;52.456;13.634;2023-03-14T00:34:58;97778.75;;;11.33;68.54
25156;BME280;21913;52.456;13.634;2023-03-14T00:40:01;97780.44;;;11.34;68.51
25156;BME280;21913;52.456;13.634;2023-03-14T00:45:02;97790.81;;;11.34;68.41
25156;BME280;21913;52.456;13.634;2023-03-14T00:50:04;97784.78;;;11.33;68.46
25156;BME280;21913;52.456;13.634;2023-03-14T00:55:06;97804.59;;;11.35;68.61
25156;BME280;21913;52.456;13.634;2023-03-14T01:00:08;97809.75;;;11.35;68.51
25156;BME280;21913;52.456;13.634;2023-03-14T01:05:10;97781.22;;;11.36;68.44
25156;BME280;21913;52.456;13.634;2023-03-14T01:10:12;97780.44;;;11.34;68.54
25156;BME280;21913;52.456;13.634;2023-03-14T01:15:14;97766.59;;;11.35;68.55
25156;BME280;21913;52.456;13.634;2023-03-14T01:20:16;97778.69;;;11.35;68.49
25156;BME280;21913;52.456;13.634;2023-03-14T01:25:18;97759.66;;;11.36;68.47
25156;BME280;21913;52.456;13.634;2023-03-14T01:30:19;97768.28;;;11.36;68.58
25156;BME280;21913;52.456;13.634;2023-03-14T01:35:21;97760.50;;;11.36;68.51
25156;BME280;21913;52.456;13.634;2023-03-14T01:40:23;97741.53;;;11.36;68.52
25156;BME280;21913;52.456;13.634;2023-03-14T01:51:06;97757.91;;;11.36;68.57
25156;BME280;21913;52.456;13.634;2023-03-14T01:56:11;97790.72;;;11.36;68.42
25156;BME280;21913;52.456;13.634;2023-03-14T02:01:16;97803.69;;;11.36;68.39
25156;BME280;21913;52.456;13.634;2023-03-14T02:06:23;97782.09;;;11.37;68.56
25156;BME280;21913;52.456;13.634;2023-03-14T02:11:29;97780.34;;;11.37;68.53
25156;BME280;21913;52.456;13.634;2023-03-14T02:16:38;97776.03;;;11.36;68.53
25156;BME280;21913;52.456;13.634;2023-03-14T02:22:09;97765.69;;;11.36;68.52
25156;BME280;21913;52.456;13.634;2023-03-14T02:27:19;97757.03;;;11.37;68.63
25156;BME280;21913;52.456;13.634;2023-03-14T02:32:24;97755.31;;;11.36;68.48
25156;BME280;21913;52.456;13.634;2023-03-14T02:43:13;97755.31;;;11.36;68.53
25156;BME280;21913;52.456;13.634;2023-03-14T02:48:23;97763.09;;;11.36;68.60
25156;BME280;21913;52.456;13.634;2023-03-14T02:53:31;97756.19;;;11.37;68.54
25156;BME280;21913;52.456;13.634;2023-03-14T02:58:39;97755.31;;;11.36;68.54
25156;BME280;21913;52.456;13.634;2023-03-14T03:04:00;97760.50;;;11.36;68.48
25156;BME280;21913;52.456;13.634;2023-03-14T03:09:02;97755.31;;;11.36;68.65
25156;BME280;21913;52.456;13.634;2023-03-14T03:14:04;97751.84;;;11.37;68.75
25156;BME280;21913;52.456;13.634;2023-03-14T03:19:05;97754.44;;;11.37;68.53
25156;BME280;21913;52.456;13.634;2023-03-14T03:24:07;97751.03;;;11.37;68.49
25156;BME280;21913;52.456;13.634;2023-03-14T03:29:08;97745.84;;;11.37;68.61
25156;BME280;21913;52.456;13.634;2023-03-14T03:34:10;97741.50;;;11.37;68.58
25156;BME280;21913;52.456;13.634;2023-03-14T03:39:12;97744.09;;;11.37;68.62
25156;BME280;21913;52.456;13.634;2023-03-14T03:44:13;97750.09;;;11.38;68.88
25156;BME280;21913;52.456;13.634;2023-03-14T03:49:15;97738.91;;;11.37;68.61
25156;BME280;21913;52.456;13.634;2023-03-14T03:54:17;97737.16;;;11.38;68.67
25156;BME280;21913;52.456;13.634;2023-03-14T03:59:18;97731.16;;;11.37;68.60
25156;BME280;21913;52.456;13.634;2023-03-14T04:04:20;97730.25;;;11.38;68.56
25156;BME280;21913;52.456;13.634;2023-03-14T04:09:22;97723.38;;;11.37;68.72
25156;BME280;21913;52.456;13.634;2023-03-14T04:14:40;97714.69;;;11.38;68.66
25156;BME280;21913;52.456;13.634;2023-03-14T04:19:47;97712.13;;;11.38;68.63
25156;BME280;21913;52.456;13.634;2023-03-14T04:24:49;97710.44;;;11.37;68.53
25156;BME280;21913;52.456;13.634;2023-03-14T04:29:52;97712.13;;;11.38;68.67
25156;BME280;21913;52.456;13.634;2023-03-14T04:35:06;97711.28;;;11.38;68.51
25156;BME280;21913;52.456;13.634;2023-03-14T04:40:08;97700.91;;;11.38;68.71
25156;BME280;21913;52.456;13.634;2023-03-14T04:45:11;97706.94;;;11.38;68.59
25156;BME280;21913;52.456;13.634;2023-03-14T04:50:15;97702.66;;;11.37;68.60
25156;BME280;21913;52.456;13.634;2023-03-14T04:55:16;97697.41;;;11.39;68.70
25156;BME280;21913;52.456;13.634;2023-03-14T05:00:18;97696.59;;;11.38;68.73
25156;BME280;21913;52.456;13.634;2023-03-14T05:05:31;97696.59;;;11.38;68.68
25156;BME280;21913;52.456;13.634;2023-03-14T05:10:42;97686.28;;;11.37;68.69
25156;BME280;21913;52.456;13.634;2023-03-14T05:16:08;97687.06;;;11.39;68.60
25156;BME280;21913;52.456;13.634;2023-03-14T05:21:24;97682.78;;;11.38;68.58
25156;BME280;21913;52.456;13.634;2023-03-14T05:26:43;97689.66;;;11.39;68.61
25156;BME280;21913;52.456;13.634;2023-03-14T05:31:54;97692.25;;;11.39;68.84
25156;BME280;21913;52.456;13.634;2023-03-14T05:37:34;97686.22;;;11.38;68.63
25156;BME280;21913;52.456;13.634;2023-03-14T05:42:56;97671.53;;;11.39;68.61
25156;BME280;21913;52.456;13.634;2023-03-14T05:48:18;97652.56;;;11.38;68.69
25156;BME280;21913;52.456;13.634;2023-03-14T05:53:38;97669.00;;;11.37;68.75
25156;BME280;21913;52.456;13.634;2023-03-14T05:58:48;97663.75;;;11.39;68.76
25156;BME280;21913;52.456;13.634;2023-03-14T06:04:16;97667.19;;;11.39;68.68
25156;BME280;21913;52.456;13.634;2023-03-14T06:09:23;97670.63;;;11.40;68.75
25156;BME280;21913;52.456;13.634;2023-03-14T06:14:27;97671.53;;;11.39;68.86
25156;BME280;21913;52.456;13.634;2023-03-14T06:19:28;97665.50;;;11.38;68.69
25156;BME280;21913;52.456;13.634;2023-03-14T06:24:30;97668.09;;;11.38;68.84
25156;BME280;21913;52.456;13.634;2023-03-14T06:29:33;97656.00;;;11.39;68.77
25156;BME280;21913;52.456;13.634;2023-03-14T06:34:36;97653.41;;;11.39;68.72
25156;BME280;21913;52.456;13.634;2023-03-14T06:39:38;97660.25;;;11.40;68.65
25156;BME280;21913;52.456;13.634;2023-03-14T06:44:46;97646.47;;;11.39;68.87
25156;BME280;21913;52.456;13.634;2023-03-14T06:49:48;97650.75;;;11.40;68.73
25156;BME280;21913;52.456;13.634;2023-03-14T06:54:52;97661.09;;;11.40;68.66
25156;BME280;21913;52.456;13.634;2023-03-14T06:59:56;97649.06;;;11.39;68.77
25156;BME280;21913;52.456;13.634;2023-03-14T07:04:58;97641.31;;;11.39;68.63
25156;BME280;21913;52.456;13.634;2023-03-14T07:10:00;97648.16;;;11.40;68.74
25156;BME280;21913;52.456;13.634;2023-03-14T07:15:03;97645.56;;;11.40;68.66
25156;BME280;21913;52.456;13.634;2023-03-14T07:20:23;97650.88;;;11.37;68.72
25156;BME280;21913;52.456;13.634;2023-03-14T07:25:26;97656.84;;;11.39;68.76
25156;BME280;21913;52.456;13.634;2023-03-14T07:30:28;97659.41;;;11.39;68.62
25156;BME280;21913;52.456;13.634;2023-03-14T07:35:31;97657.66;;;11.40;68.68
25156;BME280;21913;52.456;13.634;2023-03-14T07:40:35;97652.50;;;11.40;68.79
25156;BME280;21913;52.456;13.634;2023-03-14T07:45:39;97666.28;;;11.40;68.82
25156;BME280;21913;52.456;13.634;2023-03-14T07:50:43;97663.69;;;11.40;68.78
25156;BME280;21913;52.456;13.634;2023-03-14T07:55:45;97660.19;;;11.41;68.91
25156;BME280;21913;52.456;13.634;2023-03-14T08:00:47;97668.81;;;11.42;68.89
25156;BME280;21913;52.456;13.634;2023-03-14T08:05:49;97654.19;;;11.41;68.85
25156;BME280;21913;52.456;13.634;2023-03-14T08:10:51;97670.53;;;11.41;69.02
25156;BME280;21913;52.456;13.634;2023-03-14T08:15:53;97661.91;;;11.42;68.90
25156;BME280;21913;52.456;13.634;2023-03-14T08:20:54;97677.44;;;11.42;69.00
25156;BME280;21913;52.456;13.634;2023-03-14T08:25:56;97679.19;;;11.42;69.07
25156;BME280;21913;52.456;13.634;2023-03-14T08:30:57;97670.03;;;11.33;69.62
25156;BME280;21913;52.456;13.634;2023-03-14T08:36:00;97670.97;;;11.30;70.53
25156;BME280;21913;52.456;13.634;2023-03-14T08:41:02;97676.13;;;11.32;70.50
25156;BME280;21913;52.456;13.634;2023-03-14T08:46:04;97680.25;;;11.36;70.21
25156;BME280;21913;52.456;13.634;2023-03-14T08:51:09;97678.47;;;11.38;70.15
25156;BME280;21913;52.456;13.634;2023-03-14T08:56:10;97692.16;;;11.40;70.07
25156;BME280;21913;52.456;13.634;2023-03-14T09:01:12;97688.75;;;11.40;69.91
25156;BME280;21913;52.456;13.634;2023-03-14T09:06:13;97687.78;;;11.42;69.87
25156;BME280;21913;52.456;13.634;2023-03-14T09:11:15;97693.84;;;11.41;69.82
25156;BME280;21913;52.456;13.634;2023-03-14T09:16:16;97699.00;;;11.43;69.68
25156;BME280;21913;52.456;13.634;2023-03-14T09:21:18;97705.91;;;11.42;69.74
25156;BME280;21913;52.456;13.634;2023-03-14T09:26:19;97701.56;;;11.43;69.69
25156;BME280;21913;52.456;13.634;2023-03-14T09:31:21;97705.00;;;11.43;69.61
25156;BME280;21913;52.456;13.634;2023-03-14T09:36:22;97705.91;;;11.42;69.83
25156;BME280;21913;52.456;13.634;2023-03-14T09:41:32;97719.63;;;11.44;69.73
25156;BME280;21913;52.456;13.634;2023-03-14T09:46:36;97709.34;;;11.43;69.64
25156;BME280;21913;52.456;13.634;2023-03-14T09:51:39;97719.69;;;11.43;69.83
25156;BME280;21913;52.456;13.634;2023-03-14T09:56:41;97725.72;;;11.43;69.66
25156;BME280;21913;52.456;13.634;2023-03-14T10:01:43;97727.41;;;11.44;69.81
25156;BME280;21913;52.456;13.634;2023-03-14T10:06:44;97735.16;;;11.44;69.66
25156;BME280;21913;52.456;13.634;2023-03-14T10:11:46;97742.94;;;11.44;69.73
25156;BME280;21913;52.456;13.634;2023-03-14T10:16:47;97747.28;;;11.44;69.79
25156;BME280;21913;52.456;13.634;2023-03-14T10:21:53;97769.66;;;11.45;69.56
25156;BME280;21913;52.456;13.634;2023-03-14T10:26:59;97816.28;;;11.45;69.59
25156;BME280;21913;52.456;13.634;2023-03-14T10:32:06;97845.59;;;11.45;69.61
25156;BME280;21913;52.456;13.634;2023-03-14T10:37:18;97868.06;;;11.45;69.41
25156;BME280;21913;52.456;13.634;2023-03-14T10:47:28;97922.44;;;11.45;69.62
25156;BME280;21913;52.456;13.634;2023-03-14T10:52:30;97941.41;;;11.45;69.59
25156;BME280;21913;52.456;13.634;2023-03-14T10:57:46;97959.59;;;11.44;69.60
25156;BME280;21913;52.456;13.634;2023-03-14T11:03:08;97992.34;;;11.45;69.66
25156;BME280;21913;52.456;13.634;2023-03-14T11:09:07;98032.03;;;11.45;69.62
25156;BME280;21913;52.456;13.634;2023-03-14T11:19:20;98086.72;;;11.36;69.66
25156;BME280;21913;52.456;13.634;2023-03-14T11:24:43;98122.94;;;11.38;69.18
25156;BME280;21913;52.456;13.634;2023-03-14T11:29:55;98130.66;;;11.39;69.27
25156;BME280;21913;52.456;13.634;2023-03-14T11:35:28;98186.72;;;11.40;69.36
25156;BME280;21913;52.456;13.634;2023-03-14T11:40:27;98222.94;;;11.42;69.28
25156;BME280;21913;52.456;13.634;2023-03-14T11:45:34;98253.97;;;11.43;69.44
25156;BME280;21913;52.456;13.634;2023-03-14T11:50:36;98282.44;;;11.43;69.56
25156;BME280;21913;52.456;13.634;2023-03-14T11:55:42;98322.19;;;11.42;70.22
25156;BME280;21913;52.456;13.634;2023-03-14T12:00:46;98347.19;;;11.43;70.08
25156;BME280;21913;52.456;13.634;2023-03-14T12:06:02;98348.81;;;11.46;70.20
25156;BME280;21913;52.456;13.634;2023-03-14T12:16:47;98373.88;;;11.45;70.08
25156;BME280;21913;52.456;13.634;2023-03-14T12:21:58;98396.34;;;11.45;69.99
25156;BME280;21913;52.456;13.634;2023-03-14T12:27:03;98409.28;;;11.45;69.86
25156;BME280;21913;52.456;13.634;2023-03-14T12:32:07;98414.47;;;11.45;69.91
25156;BME280;21913;52.456;13.634;2023-03-14T12:58:26;98486.91;;;11.46;69.99
25156;BME280;21913;52.456;13.634;2023-03-14T13:03:47;98505.06;;;11.46;69.86
25156;BME280;21913;52.456;13.634;2023-03-14T13:08:51;98519.75;;;11.46;69.83
25156;BME280;21913;52.456;13.634;2023-03-14T13:13:57;98541.31;;;11.46;69.96
25156;BME280;21913;52.456;13.634;2023-03-14T13:19:03;98559.44;;;11.46;70.00
25156;BME280;21913;52.456;13.634;2023-03-14T13:24:07;98580.16;;;11.46;70.07
25156;BME280;21913;52.456;13.634;2023-03-14T13:29:30;98593.94;;;11.47;70.02
25156;BME280;21913;52.456;13.634;2023-03-14T13:34:34;98614.66;;;11.47;69.98
25156;BME280;21913;52.456;13.634;2023-03-14T13:39:39;98633.00;;;11.39;69.41
25156;BME280;21913;52.456;13.634;2023-03-14T13:44:41;98623.25;;;11.16;67.95
25156;BME280;21913;52.456;13.634;2023-03-14T13:49:43;98644.00;;;11.15;67.60
25156;BME280;21913;52.456;13.634;2023-03-14T13:54:47;98639.53;;;11.20;67.35
25156;BME280;21913;52.456;13.634;2023-03-14T14:00:04;98653.22;;;11.25;67.24
25156;BME280;21913;52.456;13.634;2023-03-14T14:05:05;98672.16;;;11.27;67.25
25156;BME280;21913;52.456;13.634;2023-03-14T14:10:10;98685.03;;;11.30;67.40
25156;BME280;21913;52.456;13.634;2023-03-14T14:15:22;98699.69;;;11.31;67.41
25156;BME280;21913;52.456;13.634;2023-03-14T14:25:29;98723.81;;;11.33;67.92
25156;BME280;21913;52.456;13.634;2023-03-14T14:30:32;98739.28;;;11.35;68.14
25156;BME280;21913;52.456;13.634;2023-03-14T14:35:35;98763.44;;;11.35;68.39
25156;BME280;21913;52.456;13.634;2023-03-14T14:40:43;98774.66;;;11.36;68.22
25156;BME280;21913;52.456;13.634;2023-03-14T14:45:48;98782.47;;;11.34;68.35
25156;BME280;21913;52.456;13.634;2023-03-14T14:51:00;98805.72;;;11.36;68.44
25156;BME280;21913;52.456;13.634;2023-03-14T14:56:26;98824.69;;;11.36;68.58
25156;BME280;21913;52.456;13.634;2023-03-14T15:01:33;98834.22;;;11.36;68.71
25156;BME280;21913;52.456;13.634;2023-03-14T15:06:35;98850.59;;;11.36;68.82
25156;BME280;21913;52.456;13.634;2023-03-14T15:11:37;98858.38;;;11.36;68.86
25156;BME280;21913;52.456;13.634;2023-03-14T15:16:39;98860.09;;;11.37;68.89
25156;BME280;21913;52.456;13.634;2023-03-14T15:21:41;98878.22;;;11.37;68.80
25156;BME280;21913;52.456;13.634;2023-03-14T15:26:43;98887.75;;;11.37;68.92
25156;BME280;21913;52.456;13.634;2023-03-14T15:31:44;98899.81;;;11.36;69.02
25156;BME280;21913;52.456;13.634;2023-03-14T15:36:46;98921.41;;;11.37;69.17
25156;BME280;21913;52.456;13.634;2023-03-14T15:41:47;98930.03;;;11.37;69.00
25156;BME280;21913;52.456;13.634;2023-03-14T15:46:49;98933.47;;;11.36;69.03
25156;BME280;21913;52.456;13.634;2023-03-14T15:51:50;98951.59;;;11.38;69.23
25156;BME280;21913;52.456;13.634;2023-03-14T15:56:51;98966.28;;;11.37;69.19
25156;BME280;21913;52.456;13.634;2023-03-14T16:01:53;98963.69;;;11.36;69.04
25156;BME280;21913;52.456;13.634;2023-03-14T16:06:54;98963.69;;;11.37;68.98
25156;BME280;21913;52.456;13.634;2023-03-14T16:11:56;98980.09;;;11.36;69.07
25156;BME280;21913;52.456;13.634;2023-03-14T16:16:57;98989.59;;;11.36;69.04
25156;BME280;21913;52.456;13.634;2023-03-14T16:21:59;98996.50;;;11.37;69.11
25156;BME280;21913;52.456;13.634;2023-03-14T16:27:00;99019.81;;;11.37;69.20
25156;BME280;21913;52.456;13.634;2023-03-14T16:32:02;99029.28;;;11.36;69.06
25156;BME280;21913;52.456;13.634;2023-03-14T16:37:04;99037.94;;;11.35;69.31
25156;BME280;21913;52.456;13.634;2023-03-14T16:42:06;99060.38;;;11.36;69.06
25156;BME280;21913;52.456;13.634;2023-03-14T16:47:08;99069.88;;;11.36;69.20
25156;BME280;21913;52.456;13.634;2023-03-14T16:52:11;99097.50;;;11.37;68.99
25156;BME280;21913;52.456;13.634;2023-03-14T16:57:13;99102.69;;;11.35;69.21
25156;BME280;21913;52.456;13.634;2023-03-14T17:02:14;99117.34;;;11.36;69.14
25156;BME280;21913;52.456;13.634;2023-03-14T17:07:15;99128.59;;;11.35;69.17
25156;BME280;21913;52.456;13.634;2023-03-14T17:12:17;99153.59;;;11.36;69.34
25156;BME280;21913;52.456;13.634;2023-03-14T17:17:18;99169.13;;;11.36;69.13
25156;BME280;21913;52.456;13.634;2023-03-14T17:22:20;99197.63;;;11.36;69.11
25156;BME280;21913;52.456;13.634;2023-03-14T17:27:26;99210.56;;;11.36;69.28
25156;BME280;21913;52.456;13.634;2023-03-14T17:32:27;99220.09;;;11.36;69.33
25156;BME280;21913;52.456;13.634;2023-03-14T17:37:29;99231.28;;;11.36;69.26
25156;BME280;21913;52.456;13.634;2023-03-14T17:42:30;99256.34;;;11.36;69.07
25156;BME280;21913;52.456;13.634;2023-03-14T17:47:32;99274.47;;;11.36;69.06
25156;BME280;21913;52.456;13.634;2023-03-14T17:52:34;99280.53;;;11.35;69.09
25156;BME280;21913;52.456;13.634;2023-03-14T17:57:36;99290.00;;;11.36;69.30
25156;BME280;21913;52.456;13.634;2023-03-14T18:02:38;99296.06;;;11.35;69.02
25156;BME280;21913;52.456;13.634;2023-03-14T18:07:39;99316.78;;;11.35;69.11
25156;BME280;21913;52.456;13.634;2023-03-14T18:12:42;99328.00;;;11.35;69.04
25156;BME280;21913;52.456;13.634;2023-03-14T18:17:43;99332.34;;;11.35;68.56
25156;BME280;21913;52.456;13.634;2023-03-14T18:22:44;99344.69;;;11.16;64.12
25156;BME280;21913;52.456;13.634;2023-03-14T18:27:46;99355.00;;;11.19;62.07
25156;BME280;21913;52.456;13.634;2023-03-14T18:32:47;99369.31;;;11.44;61.89
25156;BME280;21913;52.456;13.634;2023-03-14T18:37:49;99377.56;;;11.72;62.51
25156;BME280;21913;52.456;13.634;2023-03-14T18:42:50;99383.25;;;11.96;62.92
25156;BME280;21913;52.456;13.634;2023-03-14T18:47:52;99393.28;;;12.17;63.30
25156;BME280;21913;52.456;13.634;2023-03-14T18:52:53;99409.44;;;12.33;63.76
25156;BME280;21913;52.456;13.634;2023-03-14T18:57:55;99412.66;;;12.47;64.02
25156;BME280;21913;52.456;13.634;2023-03-14T19:02:56;99414.22;;;12.57;64.46
25156;BME280;21913;52.456;13.634;2023-03-14T19:07:58;99425.28;;;12.66;64.76
25156;BME280;21913;52.456;13.634;2023-03-14T19:12:59;99438.16;;;12.72;64.90
25156;BME280;21913;52.456;13.634;2023-03-14T19:18:04;99441.53;;;12.77;65.31
25156;BME280;21913;52.456;13.634;2023-03-14T19:23:06;99454.38;;;12.84;65.43
25156;BME280;21913;52.456;13.634;2023-03-14T19:28:08;99463.78;;;12.90;65.49
25156;BME280;21913;52.456;13.634;2023-03-14T19:33:14;99471.50;;;12.95;65.71
25156;BME280;21913;52.456;13.634;2023-03-14T19:38:16;99485.34;;;12.95;65.81
25156;BME280;21913;52.456;13.634;2023-03-14T19:43:17;99491.44;;;12.94;66.03
25156;BME280;21913;52.456;13.634;2023-03-14T19:48:19;99501.00;;;12.90;66.39
25156;BME280;21913;52.456;13.634;2023-03-14T19:53:20;99514.88;;;12.89;66.59
25156;BME280;21913;52.456;13.634;2023-03-14T19:58:22;99519.22;;;12.89;66.70
25156;BME280;21913;52.456;13.634;2023-03-14T20:03:23;99525.25;;;12.89;66.83
25156;BME280;21913;52.456;13.634;2023-03-14T20:08:25;99530.44;;;12.89;66.87
25156;BME280;21913;52.456;13.634;2023-03-14T20:13:26;99535.66;;;12.88;67.05
25156;BME280;21913;52.456;13.634;2023-03-14T20:18:30;99541.72;;;12.87;67.18
25156;BME280;21913;52.456;13.634;2023-03-14T20:23:31;99550.41;;;12.86;67.34
25156;BME280;21913;52.456;13.634;2023-03-14T20:28:33;99562.56;;;12.84;67.39
25156;BME280;21913;52.456;13.634;2023-03-14T20:33:34;99565.16;;;12.82;67.48
25156;BME280;21913;52.456;13.634;2023-03-14T20:38:38;99573.00;;;12.81;67.58
25156;BME280;21913;52.456;13.634;2023-03-14T20:43:40;99576.47;;;12.80;67.72
25156;BME280;21913;52.456;13.634;2023-03-14T20:48:42;99586.00;;;12.79;67.80
25156;BME280;21913;52.456;13.634;2023-03-14T20:53:43;99600.72;;;12.79;67.76
25156;BME280;21913;52.456;13.634;2023-03-14T20:58:45;99610.25;;;12.77;67.90
25156;BME280;21913;52.456;13.634;2023-03-14T21:03:46;99609.44;;;12.75;67.96
25156;BME280;21913;52.456;13.634;2023-03-14T21:08:47;99615.50;;;12.74;68.01
25156;BME280;21913;52.456;13.634;2023-03-14T21:13:49;99612.06;;;12.73;68.07
25156;BME280;21913;52.456;13.634;2023-03-14T21:18:50;99616.41;;;12.71;68.14
25156;BME280;21913;52.456;13.634;2023-03-14T21:23:52;99611.25;;;12.70;68.20
25156;BME280;21913;52.456;13.634;2023-03-14T21:29:02;99615.63;;;12.66;68.36
25156;BME280;21913;52.456;13.634;2023-03-14T21:34:03;99621.69;;;12.65;68.31
25156;BME280;21913;52.456;13.634;2023-03-14T21:39:05;99624.28;;;12.65;68.27
25156;BME280;21913;52.456;13.634;2023-03-14T21:44:06;99627.81;;;12.62;68.42
25156;BME280;21913;52.456;13.634;2023-03-14T21:49:08;99631.25;;;12.63;68.46
25156;BME280;21913;52.456;13.634;2023-03-14T21:54:10;99647.72;;;12.62;68.54
25156;BME280;21913;52.456;13.634;2023-03-14T21:59:11;99640.81;;;12.59;68.53
25156;BME280;21913;52.456;13.634;2023-03-14T22:04:13;99637.34;;;12.59;68.63
25156;BME280;21913;52.456;13.634;2023-03-14T22:09:14;99640.88;;;12.56;68.52
25156;BME280;21913;52.456;13.634;2023-03-14T22:14:16;99635.69;;;12.56;68.72
25156;BME280;21913;52.456;13.634;2023-03-14T22:19:17;99653.88;;;12.53;68.75
25156;BME280;21913;52.456;13.634;2023-03-14T22:24:19;99653.88;;;12.53;68.79
25156;BME280;21913;52.456;13.634;2023-03-14T22:29:21;99659.09;;;12.50;68.79
25156;BME280;21913;52.456;13.634;2023-03-14T22:34:23;99665.16;;;12.51;68.81
25156;BME280;21913;52.456;13.634;2023-03-14T22:39:24;99662.59;;;12.48;68.82
25156;BME280;21913;52.456;13.634;2023-03-14T22:44:26;99666.94;;;12.47;68.87
25156;BME280;21913;52.456;13.634;2023-03-14T22:49:31;99669.56;;;12.46;68.94
25156;BME280;21913;52.456;13.634;2023-03-14T22:54:32;99673.91;;;12.44;68.90
25156;BME280;21913;52.456;13.634;2023-03-14T22:59:34;99679.09;;;12.44;68.93
25156;BME280;21913;52.456;13.634;2023-03-14T23:04:35;99678.25;;;12.42;68.93
25156;BME280;21913;52.456;13.634;2023-03-14T23:09:38;99669.66;;;12.40;69.03
25156;BME280;21913;52.456;13.634;2023-03-14T23:14:39;99672.25;;;12.38;68.91
25156;BME280;21913;52.456;13.634;2023-03-14T23:19:41;99681.75;;;12.37;69.02
25156;BME280;21913;52.456;13.634;2023-03-14T23:24:42;99684.38;;;12.36;68.97
25156;BME280;21913;52.456;13.634;2023-03-14T23:29:45;99698.25;;;12.35;69.06
25156;BME280;21913;52.456;13.634;2023-03-14T23:34:47;99703.44;;;12.35;69.05
25156;BME280;21913;52.456;13.634;2023-03-14T23:39:48;99705.16;;;12.33;69.12
25156;BME280;21913;52.456;13.634;2023-03-14T23:44:49;99702.56;;;12.33;69.05
25156;BME280;21913;52.456;13.634;2023-03-14T23:49:53;99706.03;;;12.32;69.05
25156;BME280;21913;52.456;13.634;2023-03-14T23:54:54;99705.22;;;12.30;69.07
25156;BME280;21913;52.456;13.634;2023-03-14T23:59:56;99707.81;;;12.28;69.12
